• Join FlightAware (Why Join?)
  • Login
  • US Flag 
06:42AM EST


 

Airport Tracker/Info


-or-


 

Live Flight TrackerFlight Track Log ✈ EJA930 ✈ 24-Jun-2013 ✈ KILG - KORL

Flight Track Log - Related Links

Times and Time Zones

All times are in EDT time to prevent confusion due to time zone crossing. See the EJA930 flight status page for this flight to view local times or setup timezone preferences in your user account.

Time Position Orientation Groundspeed Altitude Reporting Facility
EDT Latitude Longitude Course Direction KTS MPH feet Rate Location/Type
05:02AM 39.7500 -75.6167 346° North 193 222 4,000  Level Philadelphia TRACON
05:04AM 39.6594 -75.6456 194° South 237 273 8,400 2,400 Climbing Washington Center
05:05AM 39.5803 -75.6372 175° South 264 304 10,500 1,860 Climbing Washington Center
05:06AM 39.4864 -75.6239 174° South 305 351 12,100 1,620 Climbing Washington Center
05:07AM 39.1157 -75.3833 180° South  Level FlightAware Approximate
05:07AM 39.3864 -75.6158 176° South 342 394 13,800  Level Washington Center
05:08AM 39.2822 -75.6050 175° South 369 425 15,500 1,560 Climbing Washington Center
05:09AM 39.1758 -75.5917 174° South 383 441 17,000 1,620 Climbing Washington Center
05:10AM 39.0697 -75.5836 177° South 389 448 18,800 1,860 Climbing Washington Center
05:11AM 38.9633 -75.5731 176° South 384 442 20,800 1,980 Climbing Washington Center
05:12AM 38.8611 -75.5864 186° South 384 442 22,700 1,920 Climbing Washington Center
05:13AM 38.7653 -75.6369 202° Southwest 378 435 24,700 1,920 Climbing Washington Center
05:14AM 38.6714 -75.6953 206° Southwest 372 428 26,700 1,980 Climbing Washington Center
05:15AM 38.5756 -75.7536 205° Southwest 378 435 28,700 1,560 Climbing Washington Center
05:16AM 38.4753 -75.8119 204° Southwest 383 441 29,900 1,080 Climbing Washington Center
05:17AM 38.3647 -75.8725 203° Southwest 408 470 30,900 1,260 Climbing Washington Center
05:18AM 38.2539 -75.9381 205° Southwest 428 493 32,400 1,740 Climbing Washington Center
05:19AM 38.1475 -76.0011 205° Southwest 434 499 34,400 2,160 Climbing Washington Center
05:20AM 38.0408 -76.0664 206° Southwest 434 499 36,800 2,100 Climbing Washington Center
05:21AM 37.9364 -76.1261 204° Southwest 423 487 38,600 1,620 Climbing Washington Center
05:22AM 37.8297 -76.1858 204° Southwest 423 487 40,100 1,440 Climbing Washington Center
05:23AM 37.7231 -76.2481 205° Southwest 423 487 41,500 1,380 Climbing Washington Center
05:24AM 37.6164 -76.3103 205° Southwest 423 487 42,900 720 Climbing Washington Center
05:25AM 37.5075 -76.3719 204° Southwest 423 487 43,000  Climbing Washington Center
05:26AM 37.3944 -76.4389 205° Southwest 429 494 43,000  Level Washington Center
05:27AM 37.2728 -76.5028 203° Southwest 455 524 43,000  Level Washington Center
05:28AM 37.1556 -76.5692 204° Southwest 468 539 43,000  Level Washington Center
05:29AM 37.0361 -76.6403 205° Southwest 468 539 43,000  Level Washington Center
05:30AM 36.9144 -76.7089 204° Southwest 473 544 43,000  Level Washington Center
05:31AM 36.7950 -76.7772 205° Southwest 473 544 43,000  Level Washington Center
05:32AM 36.6733 -76.8428 203° Southwest 478 550 43,000  Level Washington Center
05:33AM 36.5536 -76.9106 204° Southwest 478 550 43,000  Level Washington Center
05:34AM 36.4192 -76.9858 204° Southwest 478 550 43,000  Level Washington Center
05:35AM 36.2994 -77.0558 205° Southwest 478 550 43,000  Level Washington Center
05:36AM 36.1756 -77.1206 203° Southwest 483 556 43,000  Level Washington Center
05:37AM 36.0600 -77.1850 204° Southwest 471 542 43,000  Level Washington Center
05:38AM 35.9400 -77.2519 204° Southwest 471 542 43,000  Level Washington Center
05:39AM 35.8161 -77.3183 203° Southwest 471 542 43,000  Level Washington Center
05:40AM 35.6942 -77.3847 204° Southwest 471 542 43,000  Level Washington Center
05:41AM 35.5742 -77.4486 203° Southwest 476 548 43,000  Level Washington Center
05:42AM 35.4522 -77.5144 204° Southwest 481 554 43,000  Level Washington Center
05:43AM 35.3361 -77.5958 210° Southwest 481 554 43,000  Level Washington Center
05:44AM 35.2342 -77.6975 219° Southwest 481 554 43,000  Level Washington Center
05:45AM 35.1361 -77.8017 221° Southwest 481 554 43,000  Level Washington Center
05:46AM 35.0319 -77.9078 220° Southwest 481 554 43,000  Level Washington Center
05:47AM 34.9278 -78.0139 220° Southwest 486 559 43,000  Level Washington Center
05:48AM 34.8444 -78.1000 220° Southwest 486 559 43,000  Level Washington Center
05:50AM 34.5997 -78.3603 221° Southwest 480 552 43,000  Level Jacksonville Center
05:51AM 34.4928 -78.4589 217° Southwest 480 552 43,000  Level Jacksonville Center
05:52AM 34.3944 -78.5672 222° Southwest 486 559 43,000  Level Jacksonville Center
05:53AM 34.2872 -78.6681 218° Southwest 486 559 43,000  Level Jacksonville Center
05:54AM 34.1667 -78.7392 206° Southwest 486 559 43,000  Level Jacksonville Center
05:55AM 34.0433 -78.8000 202° Southwest 486 559 43,000  Level Jacksonville Center
05:56AM 33.9203 -78.8658 204° Southwest 486 559 43,000  Level Jacksonville Center
05:57AM 33.7908 -78.9267 201° Southwest 492 566 43,000  Level Jacksonville Center
05:58AM 33.6656 -78.9922 204° Southwest 492 566 43,000  Level Jacksonville Center
05:59AM 33.5400 -79.0528 202° Southwest 492 566 43,000 -60 Level Jacksonville Center
06:00AM 33.4208 -79.1125 203° Southwest 486 559 42,900  Descending Jacksonville Center
06:01AM 33.2997 -79.1772 204° Southwest 481 554 43,000  Climbing Jacksonville Center
06:02AM 33.1764 -79.2394 203° Southwest 481 554 43,000  Level Jacksonville Center
06:03AM 33.0486 -79.2992 201° Southwest 486 559 43,000  Level Jacksonville Center
06:04AM 32.9253 -79.3636 204° Southwest 491 565 43,000  Level Jacksonville Center
06:05AM 32.7975 -79.4278 203° Southwest 491 565 43,000  Level Jacksonville Center
06:06AM 32.6700 -79.4919 203° Southwest 496 571 43,000  Level Jacksonville Center
06:07AM 32.5464 -79.5533 203° Southwest 490 564 43,000  Level Jacksonville Center
06:08AM 32.4206 -79.6169 203° Southwest 490 564 43,000  Level Jacksonville Center
06:09AM 32.2928 -79.6806 203° Southwest 490 564 43,000  Level Jacksonville Center
06:10AM 32.1669 -79.7439 203° Southwest 490 564 43,000  Level Jacksonville Center
06:11AM 32.0411 -79.8044 202° Southwest 490 564 43,000  Level Jacksonville Center
06:12AM 31.9153 -79.8675 203° Southwest 490 564 43,000  Level Jacksonville Center
06:13AM 31.7853 -79.9328 203° Southwest 495 570 43,000  Level Jacksonville Center
06:14AM 31.6617 -79.9931 203° Southwest 495 570 43,000  Level Jacksonville Center
06:15AM 31.5314 -80.0531 201° Southwest 495 570 43,000  Level Jacksonville Center
06:16AM 31.4056 -80.1178 204° Southwest 495 570 43,000  Level Jacksonville Center
06:17AM 31.2753 -80.1750 201° Southwest 495 570 43,000  Level Jacksonville Center
06:18AM 31.1492 -80.2369 203° Southwest 490 564 43,000  Level Jacksonville Center
06:19AM 31.0231 -80.3011 204° Southwest 496 571 43,000 -120 Level Jacksonville Center
06:20AM 30.8928 -80.3628 202° Southwest 501 577 42,800 -1,320 Descending Jacksonville Center
06:21AM 30.7667 -80.4242 203° Southwest 501 577 40,400 -2,580 Descending Jacksonville Center
06:22AM 30.6361 -80.4831 201° Southwest 496 571 37,700 -2,700 Descending Jacksonville Center
06:23AM 30.5122 -80.5464 204° Southwest 496 571 35,100 -2,700 Descending Jacksonville Center
06:24AM 30.3775 -80.6100 202° Southwest 501 577 32,300 -2,940 Descending Jacksonville Center
06:25AM 30.2389 -80.6733 202° Southwest 523 602 29,300 -2,940 Descending Jacksonville Center
06:26AM 30.1042 -80.7389 203° Southwest 530 610 26,500 -2,760 Descending Jacksonville Center
06:27AM 29.9781 -80.7992 202° Southwest 523 602 23,800 -2,640 Descending Jacksonville Center
06:28AM 29.8578 -80.8569 203° Southwest 493 567 21,300 -2,460 Descending Jacksonville Center
06:29AM 29.7375 -80.9119 202° Southwest 480 552 18,900 -2,340 Descending Jacksonville Center
06:30AM 29.6236 -80.9644 202° Southwest 459 528 16,700 -2,220 Descending Jacksonville Center
06:31AM 29.5200 -81.0167 204° Southwest 432 497 14,500 -2,160 Descending Jacksonville Center
06:32AM 29.4122 -81.0642 201° Southwest 422 486 12,400 -2,040 Descending Jacksonville Center
06:33AM 29.3186 -81.1017 199° South 398 458 10,500 -1,740 Descending Jacksonville Center
06:34AM 29.2333 -81.1269 195° South 352 405 9,000 -1,620 Descending Jacksonville Center
06:35AM 29.1564 -81.1425 190° South 311 358 7,300 -1,740 Descending Jacksonville Center
06:36AM 29.0817 -81.1606 192° South 287 330 5,600 -1,200 Descending Jacksonville Center
06:37AM 29.0108 -81.1783 192° South 275 316 5,000 -300 Descending Jacksonville Center
06:38AM 28.9506 -81.1936 193° South 254 292 5,000 -240 Level Jacksonville Center
06:39AM 28.8944 -81.2206 203° Southwest 228 262 4,600 -960 Descending Jacksonville Center
06:40AM 28.8494 -81.2783 228° Southwest 230 265 3,100 -900 Descending Jacksonville Center
06:41AM 28.8061 -81.3383 231° Southwest 236 272 2,900 -120 Descending Jacksonville Center
06:42AM 28.7631 -81.3933 228° Southwest 241 277 2,900 -240 Level Jacksonville Center
06:43AM 28.7069 -81.4156 199° South 211 243 2,500 -540 Descending Jacksonville Center
06:44AM 28.6506 -81.4189 183° South 211 243 1,900 -300 Descending Jacksonville Center
06:45AM 28.5964 -81.4267 187° South 206 237 1,900  Level Jacksonville Center
06:46AM 28.5489 -81.4508 204° Southwest 196 226 1,900 -180 Level Jacksonville Center
06:47AM 28.5211 -81.4158 132° Southeast 142 163 1,600 -600 Descending Jacksonville Center
06:48AM 28.5292 -81.3733 78° East 115 132 700 -600 Descending Jacksonville Center
06:49AM 28.5264 -81.3331 94° East 105 121 500 -240 Descending Jacksonville Center
06:51AM 28.5333 -81.3167 77° East  Level FlightAware Approximate
06:58AM 28.5455 -81.3329 77° East  Level Estimated
06:59AM 28.5455 -81.3329 77° East  Level Estimated
07:00AM 28.5455 -81.3329 77° East  Level Estimated